sensor_id;sensor_type;location;lat;lon;timestamp;pressure;altitude;pressure_sealevel;temperature;humidity
62978;BME280;49073;42.352;23.808;2023-05-29T00:00:07;94489.19;;;14.28;100.00
62978;BME280;49073;42.352;23.808;2023-05-29T00:03:09;94490.72;;;14.15;100.00
62978;BME280;49073;42.352;23.808;2023-05-29T00:06:10;94483.41;;;14.01;100.00
62978;BME280;49073;42.352;23.808;2023-05-29T00:09:10;94478.81;;;14.01;100.00
62978;BME280;49073;42.352;23.808;2023-05-29T00:12:11;94478.81;;;14.08;100.00
62978;BME280;49073;42.352;23.808;2023-05-29T00:15:12;94478.44;;;14.03;100.00
62978;BME280;49073;42.352;23.808;2023-05-29T00:18:12;94483.44;;;14.19;100.00
62978;BME280;49073;42.352;23.808;2023-05-29T00:21:13;94480.34;;;14.02;100.00
62978;BME280;49073;42.352;23.808;2023-05-29T00:24:15;94483.00;;;14.02;100.00
62978;BME280;49073;42.352;23.808;2023-05-29T00:27:15;94476.50;;;13.92;100.00
62978;BME280;49073;42.352;23.808;2023-05-29T00:30:16;94480.72;;;13.97;100.00
62978;BME280;49073;42.352;23.808;2023-05-29T00:33:17;94479.94;;;13.93;100.00
62978;BME280;49073;42.352;23.808;2023-05-29T00:36:18;94474.19;;;13.91;100.00
62978;BME280;49073;42.352;23.808;2023-05-29T00:39:19;94481.09;;;13.95;100.00
62978;BME280;49073;42.352;23.808;2023-05-29T00:42:20;94478.03;;;13.97;100.00
62978;BME280;49073;42.352;23.808;2023-05-29T00:45:21;94480.28;;;13.80;100.00
62978;BME280;49073;42.352;23.808;2023-05-29T00:48:22;94478.78;;;13.87;100.00
62978;BME280;49073;42.352;23.808;2023-05-29T00:51:23;94480.28;;;13.80;100.00
62978;BME280;49073;42.352;23.808;2023-05-29T00:54:29;94469.13;;;13.60;100.00
62978;BME280;49073;42.352;23.808;2023-05-29T00:57:31;94473.00;;;13.81;100.00
62978;BME280;49073;42.352;23.808;2023-05-29T01:00:31;94458.50;;;13.86;100.00
62978;BME280;49073;42.352;23.808;2023-05-29T01:03:33;94455.44;;;13.98;100.00
62978;BME280;49073;42.352;23.808;2023-05-29T01:06:35;94437.84;;;13.86;100.00
62978;BME280;49073;42.352;23.808;2023-05-29T01:09:36;94447.75;;;13.75;100.00
62978;BME280;49073;42.352;23.808;2023-05-29T01:12:50;94440.09;;;13.66;100.00
62978;BME280;49073;42.352;23.808;2023-05-29T01:19:16;94433.97;;;13.62;100.00
62978;BME280;49073;42.352;23.808;2023-05-29T01:29:08;94442.31;;;13.49;100.00
62978;BME280;49073;42.352;23.808;2023-05-29T01:32:11;94440.03;;;13.51;99.63
62978;BME280;49073;42.352;23.808;2023-05-29T01:35:11;94439.13;;;13.22;100.00
62978;BME280;49073;42.352;23.808;2023-05-29T01:38:12;94443.34;;;13.27;100.00
62978;BME280;49073;42.352;23.808;2023-05-29T01:41:14;94442.91;;;13.14;100.00
62978;BME280;49073;42.352;23.808;2023-05-29T01:44:16;94445.16;;;13.01;100.00
62978;BME280;49073;42.352;23.808;2023-05-29T01:47:18;94450.50;;;13.01;100.00
62978;BME280;49073;42.352;23.808;2023-05-29T01:50:20;94448.16;;;12.95;100.00
62978;BME280;49073;42.352;23.808;2023-05-29T01:53:22;94441.38;;;13.09;98.09
62978;BME280;49073;42.352;23.808;2023-05-29T01:56:24;94426.84;;;13.14;97.09
62978;BME280;49073;42.352;23.808;2023-05-29T01:59:28;94440.81;;;12.78;98.95
62978;BME280;49073;42.352;23.808;2023-05-29T02:02:30;94434.72;;;12.81;99.78
62978;BME280;49073;42.352;23.808;2023-05-29T02:05:31;94439.69;;;12.83;98.23
62978;BME280;49073;42.352;23.808;2023-05-29T02:08:32;94439.97;;;12.66;97.93
62978;BME280;49073;42.352;23.808;2023-05-29T02:11:32;94451.41;;;12.63;100.00
62978;BME280;49073;42.352;23.808;2023-05-29T02:14:33;94459.09;;;12.69;100.00
62978;BME280;49073;42.352;23.808;2023-05-29T02:17:36;94460.97;;;12.64;100.00
62978;BME280;49073;42.352;23.808;2023-05-29T02:20:36;94456.03;;;12.66;100.00
62978;BME280;49073;42.352;23.808;2023-05-29T02:23:37;94454.19;;;12.74;100.00
62978;BME280;49073;42.352;23.808;2023-05-29T02:26:37;94457.22;;;12.73;99.46
62978;BME280;49073;42.352;23.808;2023-05-29T02:29:38;94451.72;;;12.55;100.00
62978;BME280;49073;42.352;23.808;2023-05-29T02:32:39;94453.38;;;12.70;98.95
62978;BME280;49073;42.352;23.808;2023-05-29T02:35:41;94451.78;;;12.62;98.58
62978;BME280;49073;42.352;23.808;2023-05-29T02:38:41;94456.81;;;12.71;98.76
62978;BME280;49073;42.352;23.808;2023-05-29T02:41:42;94442.13;;;12.43;99.40
62978;BME280;49073;42.352;23.808;2023-05-29T02:44:42;94453.56;;;12.40;100.00
62978;BME280;49073;42.352;23.808;2023-05-29T02:47:43;94460.75;;;12.35;100.00
62978;BME280;49073;42.352;23.808;2023-05-29T02:50:44;94461.13;;;12.34;100.00
62978;BME280;49073;42.352;23.808;2023-05-29T02:53:44;94458.13;;;12.39;100.00
62978;BME280;49073;42.352;23.808;2023-05-29T02:56:45;94450.22;;;12.57;100.00
62978;BME280;49073;42.352;23.808;2023-05-29T02:59:46;94461.72;;;12.65;100.00
62978;BME280;49073;42.352;23.808;2023-05-29T03:02:47;94461.72;;;12.61;100.00
62978;BME280;49073;42.352;23.808;2023-05-29T03:05:47;94462.41;;;12.55;100.00
62978;BME280;49073;42.352;23.808;2023-05-29T03:08:48;94461.22;;;12.48;100.00
62978;BME280;49073;42.352;23.808;2023-05-29T03:11:49;94472.66;;;12.45;100.00
62978;BME280;49073;42.352;23.808;2023-05-29T03:14:50;94472.00;;;12.59;100.00
62978;BME280;49073;42.352;23.808;2023-05-29T03:17:51;94478.69;;;12.87;100.00
62978;BME280;49073;42.352;23.808;2023-05-29T03:20:51;94478.31;;;12.92;100.00
62978;BME280;49073;42.352;23.808;2023-05-29T03:23:52;94475.56;;;12.78;100.00
62978;BME280;49073;42.352;23.808;2023-05-29T03:26:52;94477.94;;;12.87;100.00
62978;BME280;49073;42.352;23.808;2023-05-29T03:29:53;94485.28;;;13.01;100.00
62978;BME280;49073;42.352;23.808;2023-05-29T03:32:55;94483.03;;;13.14;100.00
62978;BME280;49073;42.352;23.808;2023-05-29T03:35:55;94488.03;;;13.19;100.00
62978;BME280;49073;42.352;23.808;2023-05-29T03:38:56;94496.47;;;13.24;100.00
62978;BME280;49073;42.352;23.808;2023-05-29T03:41:57;94493.09;;;13.35;100.00
62978;BME280;49073;42.352;23.808;2023-05-29T03:44:58;94492.63;;;13.22;100.00
62978;BME280;49073;42.352;23.808;2023-05-29T03:47:58;94501.44;;;13.22;100.00
62978;BME280;49073;42.352;23.808;2023-05-29T03:50:59;94502.72;;;13.43;100.00
62978;BME280;49073;42.352;23.808;2023-05-29T03:54:00;94510.78;;;13.47;100.00
62978;BME280;49073;42.352;23.808;2023-05-29T03:57:00;94507.31;;;13.46;100.00
62978;BME280;49073;42.352;23.808;2023-05-29T04:00:01;94511.91;;;13.46;100.00
62978;BME280;49073;42.352;23.808;2023-05-29T04:03:03;94511.13;;;13.45;100.00
62978;BME280;49073;42.352;23.808;2023-05-29T04:06:04;94513.78;;;13.42;100.00
62978;BME280;49073;42.352;23.808;2023-05-29T04:09:05;94509.66;;;13.55;100.00
62978;BME280;49073;42.352;23.808;2023-05-29T04:12:09;94518.09;;;13.64;100.00
62978;BME280;49073;42.352;23.808;2023-05-29T04:15:09;94519.63;;;13.65;100.00
62978;BME280;49073;42.352;23.808;2023-05-29T04:18:10;94517.38;;;13.75;100.00
62978;BME280;49073;42.352;23.808;2023-05-29T04:21:11;94518.94;;;13.79;100.00
62978;BME280;49073;42.352;23.808;2023-05-29T04:24:12;94511.25;;;13.74;100.00
62978;BME280;49073;42.352;23.808;2023-05-29T04:27:12;94512.78;;;13.68;100.00
62978;BME280;49073;42.352;23.808;2023-05-29T04:30:13;94517.75;;;13.66;100.00
62978;BME280;49073;42.352;23.808;2023-05-29T04:33:14;94517.75;;;13.77;100.00
62978;BME280;49073;42.352;23.808;2023-05-29T04:36:15;94515.50;;;13.82;100.00
62978;BME280;49073;42.352;23.808;2023-05-29T04:39:16;94521.31;;;14.03;100.00
62978;BME280;49073;42.352;23.808;2023-05-29T04:42:17;94522.84;;;14.11;100.00
62978;BME280;49073;42.352;23.808;2023-05-29T04:45:19;94524.75;;;14.10;100.00
62978;BME280;49073;42.352;23.808;2023-05-29T04:48:21;94520.53;;;13.99;100.00
62978;BME280;49073;42.352;23.808;2023-05-29T04:51:21;94525.53;;;14.11;100.00
62978;BME280;49073;42.352;23.808;2023-05-29T04:54:22;94524.72;;;14.03;100.00
62978;BME280;49073;42.352;23.808;2023-05-29T04:57:23;94534.31;;;14.04;100.00
62978;BME280;49073;42.352;23.808;2023-05-29T05:00:24;94536.22;;;14.00;100.00
62978;BME280;49073;42.352;23.808;2023-05-29T05:03:25;94540.06;;;14.10;100.00
62978;BME280;49073;42.352;23.808;2023-05-29T05:06:26;94545.06;;;14.15;100.00
62978;BME280;49073;42.352;23.808;2023-05-29T05:09:27;94548.88;;;14.10;100.00
62978;BME280;49073;42.352;23.808;2023-05-29T05:12:27;94540.81;;;14.10;100.00
62978;BME280;49073;42.352;23.808;2023-05-29T05:15:28;94543.91;;;14.16;100.00
62978;BME280;49073;42.352;23.808;2023-05-29T05:18:29;94544.72;;;14.24;100.00
62978;BME280;49073;42.352;23.808;2023-05-29T05:21:29;94552.75;;;14.35;100.00
62978;BME280;49073;42.352;23.808;2023-05-29T05:24:33;94544.34;;;14.51;100.00
62978;BME280;49073;42.352;23.808;2023-05-29T05:27:35;94559.72;;;14.79;100.00
62978;BME280;49073;42.352;23.808;2023-05-29T05:30:35;94551.28;;;14.84;100.00
62978;BME280;49073;42.352;23.808;2023-05-29T05:33:36;94559.72;;;14.94;100.00
62978;BME280;49073;42.352;23.808;2023-05-29T05:36:37;94560.88;;;15.00;100.00
62978;BME280;49073;42.352;23.808;2023-05-29T05:39:38;94552.06;;;15.07;100.00
62978;BME280;49073;42.352;23.808;2023-05-29T05:42:38;94561.25;;;15.13;100.00
62978;BME280;49073;42.352;23.808;2023-05-29T05:45:39;94554.31;;;15.30;100.00
62978;BME280;49073;42.352;23.808;2023-05-29T05:48:42;94550.13;;;15.33;100.00
62978;BME280;49073;42.352;23.808;2023-05-29T05:51:42;94556.22;;;15.33;100.00
62978;BME280;49073;42.352;23.808;2023-05-29T05:54:43;94557.03;;;15.08;100.00
62978;BME280;49073;42.352;23.808;2023-05-29T05:57:44;94552.81;;;14.93;100.00
62978;BME280;49073;42.352;23.808;2023-05-29T06:00:44;94551.28;;;15.06;100.00
62978;BME280;49073;42.352;23.808;2023-05-29T06:03:45;94546.69;;;15.03;100.00
62978;BME280;49073;42.352;23.808;2023-05-29T06:06:45;94556.25;;;15.15;100.00
62978;BME280;49073;42.352;23.808;2023-05-29T06:09:46;94548.50;;;15.50;99.61
62978;BME280;49073;42.352;23.808;2023-05-29T06:12:47;94558.88;;;15.59;100.00
62978;BME280;49073;42.352;23.808;2023-05-29T06:15:48;94553.50;;;15.51;99.50
62978;BME280;49073;42.352;23.808;2023-05-29T06:18:48;94558.47;;;15.56;98.94
62978;BME280;49073;42.352;23.808;2023-05-29T06:21:49;94551.22;;;15.42;98.47
62978;BME280;49073;42.352;23.808;2023-05-29T06:24:49;94557.31;;;15.54;98.91
62978;BME280;49073;42.352;23.808;2023-05-29T06:27:50;94551.56;;;15.66;97.47
62978;BME280;49073;42.352;23.808;2023-05-29T06:30:51;94559.53;;;15.84;95.00
62978;BME280;49073;42.352;23.808;2023-05-29T06:33:51;94559.53;;;15.95;97.27
62978;BME280;49073;42.352;23.808;2023-05-29T06:36:51;94546.47;;;15.97;95.41
62978;BME280;49073;42.352;23.808;2023-05-29T06:39:52;94556.06;;;15.98;92.84
62978;BME280;49073;42.352;23.808;2023-05-29T06:42:53;94559.16;;;15.93;92.24
62978;BME280;49073;42.352;23.808;2023-05-29T06:45:53;94560.66;;;16.02;93.83
62978;BME280;49073;42.352;23.808;2023-05-29T06:48:53;94552.16;;;16.07;94.63
62978;BME280;49073;42.352;23.808;2023-05-29T06:51:54;94553.25;;;16.27;94.00
62978;BME280;49073;42.352;23.808;2023-05-29T06:54:55;94556.34;;;16.22;91.58
62978;BME280;49073;42.352;23.808;2023-05-29T06:57:57;94557.47;;;16.25;89.47
62978;BME280;49073;42.352;23.808;2023-05-29T07:00:58;94550.50;;;16.35;89.81
62978;BME280;49073;42.352;23.808;2023-05-29T07:03:59;94534.19;;;16.60;91.61
62978;BME280;49073;42.352;23.808;2023-05-29T07:07:00;94542.63;;;16.62;88.07
62978;BME280;49073;42.352;23.808;2023-05-29T07:10:01;94549.56;;;16.63;85.90
62978;BME280;49073;42.352;23.808;2023-05-29T07:13:01;94548.78;;;16.63;85.28
62978;BME280;49073;42.352;23.808;2023-05-29T07:16:02;94544.50;;;16.69;87.36
62978;BME280;49073;42.352;23.808;2023-05-29T07:19:02;94550.47;;;16.91;89.58
62978;BME280;49073;42.352;23.808;2023-05-29T07:22:03;94556.19;;;17.00;86.94
62978;BME280;49073;42.352;23.808;2023-05-29T07:25:04;94555.91;;;16.87;83.77
62978;BME280;49073;42.352;23.808;2023-05-29T07:28:04;94544.44;;;16.76;86.49
62978;BME280;49073;42.352;23.808;2023-05-29T07:31:05;94544.06;;;16.78;87.24
62978;BME280;49073;42.352;23.808;2023-05-29T07:34:06;94527.94;;;16.74;88.67
62978;BME280;49073;42.352;23.808;2023-05-29T07:37:06;94539.78;;;16.84;86.77
62978;BME280;49073;42.352;23.808;2023-05-29T07:40:07;94552.88;;;16.82;84.61
62978;BME280;49073;42.352;23.808;2023-05-29T07:43:09;94547.47;;;16.82;85.69
62978;BME280;49073;42.352;23.808;2023-05-29T07:46:09;94547.53;;;16.75;85.01
62978;BME280;49073;42.352;23.808;2023-05-29T07:49:10;94558.16;;;16.93;85.99
62978;BME280;49073;42.352;23.808;2023-05-29T07:52:10;94543.69;;;16.79;85.96
62978;BME280;49073;42.352;23.808;2023-05-29T07:55:11;94532.91;;;16.79;87.68
62978;BME280;49073;42.352;23.808;2023-05-29T07:58:11;94541.22;;;16.96;86.99
62978;BME280;49073;42.352;23.808;2023-05-29T08:01:12;94551.50;;;17.12;85.13
62978;BME280;49073;42.352;23.808;2023-05-29T08:04:13;94551.75;;;17.25;84.86
62978;BME280;49073;42.352;23.808;2023-05-29T08:07:13;94555.44;;;17.42;84.55
62978;BME280;49073;42.352;23.808;2023-05-29T08:10:14;94555.44;;;17.42;82.67
62978;BME280;49073;42.352;23.808;2023-05-29T08:13:14;94554.19;;;17.50;83.84
62978;BME280;49073;42.352;23.808;2023-05-29T08:16:15;94547.56;;;17.58;82.44
62978;BME280;49073;42.352;23.808;2023-05-29T08:19:17;94551.78;;;17.94;81.55
62978;BME280;49073;42.352;23.808;2023-05-29T08:22:17;94546.72;;;18.00;78.90
62978;BME280;49073;42.352;23.808;2023-05-29T08:25:18;94561.63;;;18.12;79.86
62978;BME280;49073;42.352;23.808;2023-05-29T08:28:18;94550.69;;;17.88;nan
62978;BME280;49073;42.352;23.808;2023-05-29T08:31:19;94547.53;;;18.00;77.83
62978;BME280;49073;42.352;23.808;2023-05-29T08:34:19;94553.47;;;18.15;78.33
62978;BME280;49073;42.352;23.808;2023-05-29T08:37:20;94557.88;;;18.02;78.68
62978;BME280;49073;42.352;23.808;2023-05-29T08:40:20;94561.38;;;17.99;79.37
62978;BME280;49073;42.352;23.808;2023-05-29T08:43:22;94561.00;;;18.00;80.05
62978;BME280;49073;42.352;23.808;2023-05-29T08:46:23;94558.13;;;17.80;74.57
62978;BME280;49073;42.352;23.808;2023-05-29T08:49:28;94563.59;;;17.73;77.91
62978;BME280;49073;42.352;23.808;2023-05-29T08:52:33;94556.97;;;17.81;79.30
62978;BME280;49073;42.352;23.808;2023-05-29T08:55:35;94557.63;;;17.89;79.62
62978;BME280;49073;42.352;23.808;2023-05-29T08:58:37;94557.53;;;17.96;79.42
62978;BME280;49073;42.352;23.808;2023-05-29T09:01:38;94552.47;;;18.06;77.22
62978;BME280;49073;42.352;23.808;2023-05-29T09:04:41;94558.34;;;18.28;76.75
62978;BME280;49073;42.352;23.808;2023-05-29T09:07:45;94547.28;;;18.46;75.55
62978;BME280;49073;42.352;23.808;2023-05-29T09:10:47;94539.16;;;18.50;75.94
62978;BME280;49073;42.352;23.808;2023-05-29T09:13:47;94546.69;;;18.62;72.84
62978;BME280;49073;42.352;23.808;2023-05-29T09:16:48;94547.50;;;18.83;75.11
62978;BME280;49073;42.352;23.808;2023-05-29T09:19:49;94556.53;;;19.00;74.82
62978;BME280;49073;42.352;23.808;2023-05-29T09:23:01;94547.69;;;18.96;71.93
62978;BME280;49073;42.352;23.808;2023-05-29T09:26:03;94549.47;;;18.82;72.59
62978;BME280;49073;42.352;23.808;2023-05-29T09:29:04;94553.03;;;18.75;74.80
62978;BME280;49073;42.352;23.808;2023-05-29T09:32:09;94550.28;;;18.52;76.22
62978;BME280;49073;42.352;23.808;2023-05-29T09:35:10;94548.34;;;18.25;76.65
62978;BME280;49073;42.352;23.808;2023-05-29T09:38:12;94546.00;;;17.96;77.54
62978;BME280;49073;42.352;23.808;2023-05-29T09:41:13;94555.25;;;17.95;80.17
62978;BME280;49073;42.352;23.808;2023-05-29T09:44:21;94556.41;;;17.94;79.04
62978;BME280;49073;42.352;23.808;2023-05-29T09:47:21;94544.63;;;18.15;80.12
62978;BME280;49073;42.352;23.808;2023-05-29T09:50:25;94554.88;;;18.27;79.88
62978;BME280;49073;42.352;23.808;2023-05-29T09:53:27;94551.22;;;18.41;80.49
62978;BME280;49073;42.352;23.808;2023-05-29T09:56:29;94552.22;;;18.51;78.78
62978;BME280;49073;42.352;23.808;2023-05-29T09:59:32;94537.66;;;18.72;77.21
62978;BME280;49073;42.352;23.808;2023-05-29T10:02:34;94542.00;;;18.90;74.29
62978;BME280;49073;42.352;23.808;2023-05-29T10:05:34;94543.44;;;19.22;70.72
62978;BME280;49073;42.352;23.808;2023-05-29T10:08:37;94540.75;;;19.42;70.47
62978;BME280;49073;42.352;23.808;2023-05-29T10:11:43;94529.97;;;19.83;67.43
62978;BME280;49073;42.352;23.808;2023-05-29T10:14:45;94528.84;;;19.80;68.62
62978;BME280;49073;42.352;23.808;2023-05-29T10:18:00;94526.38;;;19.49;66.65
62978;BME280;49073;42.352;23.808;2023-05-29T10:21:07;94523.53;;;19.76;67.49
62978;BME280;49073;42.352;23.808;2023-05-29T10:24:08;94529.34;;;19.75;65.54
62978;BME280;49073;42.352;23.808;2023-05-29T10:27:11;94525.25;;;19.67;68.22
62978;BME280;49073;42.352;23.808;2023-05-29T10:30:15;94514.25;;;19.77;67.14
62978;BME280;49073;42.352;23.808;2023-05-29T10:36:25;94520.53;;;19.71;66.63
62978;BME280;49073;42.352;23.808;2023-05-29T10:39:26;94516.81;;;19.65;66.87
62978;BME280;49073;42.352;23.808;2023-05-29T10:42:47;94524.22;;;19.60;66.25
62978;BME280;49073;42.352;23.808;2023-05-29T10:45:49;94523.09;;;19.58;65.78
62978;BME280;49073;42.352;23.808;2023-05-29T10:48:50;94516.50;;;19.39;66.08
62978;BME280;49073;42.352;23.808;2023-05-29T10:51:50;94510.53;;;19.27;67.50
62978;BME280;49073;42.352;23.808;2023-05-29T10:54:54;94514.56;;;19.39;71.14
62978;BME280;49073;42.352;23.808;2023-05-29T10:57:55;94514.03;;;19.48;72.55
62978;BME280;49073;42.352;23.808;2023-05-29T11:00:55;94515.88;;;19.31;74.44
62978;BME280;49073;42.352;23.808;2023-05-29T11:07:35;94502.44;;;18.80;78.96
62978;BME280;49073;42.352;23.808;2023-05-29T11:13:56;94503.22;;;18.80;77.43
62978;BME280;49073;42.352;23.808;2023-05-29T11:16:57;94500.50;;;19.28;74.71
62978;BME280;49073;42.352;23.808;2023-05-29T11:20:01;94493.16;;;19.48;71.13
62978;BME280;49073;42.352;23.808;2023-05-29T11:23:06;94487.31;;;19.70;70.73
62978;BME280;49073;42.352;23.808;2023-05-29T11:26:13;94484.41;;;19.41;70.08
62978;BME280;49073;42.352;23.808;2023-05-29T11:29:14;94494.88;;;19.39;71.44
62978;BME280;49073;42.352;23.808;2023-05-29T11:32:16;94495.56;;;19.43;69.30
62978;BME280;49073;42.352;23.808;2023-05-29T11:35:17;94493.31;;;19.41;70.22
62978;BME280;49073;42.352;23.808;2023-05-29T11:38:19;94491.13;;;19.32;69.64
62978;BME280;49073;42.352;23.808;2023-05-29T11:41:20;94496.22;;;19.51;69.29
62978;BME280;49073;42.352;23.808;2023-05-29T11:44:23;94486.22;;;19.68;70.55
62978;BME280;49073;42.352;23.808;2023-05-29T11:47:24;94478.28;;;19.60;67.84
62978;BME280;49073;42.352;23.808;2023-05-29T11:50:26;94490.53;;;19.65;70.14
62978;BME280;49073;42.352;23.808;2023-05-29T11:53:27;94487.13;;;19.61;70.17
62978;BME280;49073;42.352;23.808;2023-05-29T11:56:29;94488.78;;;19.55;69.54
62978;BME280;49073;42.352;23.808;2023-05-29T11:59:30;94496.63;;;19.69;69.87
62978;BME280;49073;42.352;23.808;2023-05-29T12:02:31;94495.75;;;20.13;71.75
62978;BME280;49073;42.352;23.808;2023-05-29T12:05:33;94495.13;;;20.75;70.52
62978;BME280;49073;42.352;23.808;2023-05-29T12:08:43;94494.28;;;20.78;68.28
62978;BME280;49073;42.352;23.808;2023-05-29T12:11:44;94493.72;;;20.70;70.02
62978;BME280;49073;42.352;23.808;2023-05-29T12:14:50;94493.91;;;20.80;67.66
62978;BME280;49073;42.352;23.808;2023-05-29T12:17:52;94493.78;;;20.33;64.69
62978;BME280;49073;42.352;23.808;2023-05-29T12:21:03;94497.50;;;20.03;68.23
62978;BME280;49073;42.352;23.808;2023-05-29T12:24:06;94498.13;;;19.70;65.48
62978;BME280;49073;42.352;23.808;2023-05-29T12:27:08;94512.97;;;19.62;67.98
62978;BME280;49073;42.352;23.808;2023-05-29T12:30:10;94514.94;;;19.61;70.16
62978;BME280;49073;42.352;23.808;2023-05-29T12:33:33;94515.97;;;19.03;75.46
62978;BME280;49073;42.352;23.808;2023-05-29T12:36:34;94517.97;;;18.48;82.56
62978;BME280;49073;42.352;23.808;2023-05-29T12:39:34;94510.84;;;18.07;88.19
62978;BME280;49073;42.352;23.808;2023-05-29T12:42:37;94512.16;;;17.60;94.03
62978;BME280;49073;42.352;23.808;2023-05-29T12:45:38;94500.84;;;17.38;93.46
62978;BME280;49073;42.352;23.808;2023-05-29T12:48:39;94500.00;;;17.44;94.00
62978;BME280;49073;42.352;23.808;2023-05-29T12:51:44;94499.97;;;17.48;93.56
62978;BME280;49073;42.352;23.808;2023-05-29T12:54:45;94487.84;;;17.64;94.64
62978;BME280;49073;42.352;23.808;2023-05-29T12:57:45;94493.28;;;17.91;94.78
62978;BME280;49073;42.352;23.808;2023-05-29T13:00:46;94493.19;;;18.02;96.73
62978;BME280;49073;42.352;23.808;2023-05-29T13:03:47;94491.97;;;18.07;97.76
62978;BME280;49073;42.352;23.808;2023-05-29T13:06:48;94484.50;;;18.18;96.29
62978;BME280;49073;42.352;23.808;2023-05-29T13:09:49;94481.66;;;18.29;95.60
62978;BME280;49073;42.352;23.808;2023-05-29T13:12:49;94477.72;;;18.34;94.88
62978;BME280;49073;42.352;23.808;2023-05-29T13:15:59;94482.50;;;18.22;91.62
62978;BME280;49073;42.352;23.808;2023-05-29T13:18:59;94487.13;;;18.22;91.35
62978;BME280;49073;42.352;23.808;2023-05-29T13:22:00;94483.56;;;18.28;92.66
62978;BME280;49073;42.352;23.808;2023-05-29T13:25:00;94478.38;;;18.14;90.70
62978;BME280;49073;42.352;23.808;2023-05-29T13:28:01;94482.72;;;18.08;93.81
62978;BME280;49073;42.352;23.808;2023-05-29T13:31:02;94485.66;;;18.44;91.88
62978;BME280;49073;42.352;23.808;2023-05-29T13:34:05;94481.78;;;18.69;88.30
62978;BME280;49073;42.352;23.808;2023-05-29T13:37:06;94478.13;;;18.80;90.47
62978;BME280;49073;42.352;23.808;2023-05-29T13:40:07;94481.78;;;18.69;86.16
62978;BME280;49073;42.352;23.808;2023-05-29T13:43:11;94493.38;;;18.42;84.62
62978;BME280;49073;42.352;23.808;2023-05-29T13:46:12;94485.91;;;18.26;83.56
62978;BME280;49073;42.352;23.808;2023-05-29T13:49:13;94483.00;;;18.13;85.64
62978;BME280;49073;42.352;23.808;2023-05-29T13:52:13;94464.47;;;18.15;85.64
62978;BME280;49073;42.352;23.808;2023-05-29T13:55:14;94485.28;;;18.42;83.55
62978;BME280;49073;42.352;23.808;2023-05-29T13:58:15;94475.06;;;18.57;85.00
62978;BME280;49073;42.352;23.808;2023-05-29T14:01:15;94475.81;;;18.58;85.30
62978;BME280;49073;42.352;23.808;2023-05-29T14:04:19;94474.63;;;18.59;84.25
62978;BME280;49073;42.352;23.808;2023-05-29T14:07:20;94459.59;;;18.34;84.50
62978;BME280;49073;42.352;23.808;2023-05-29T14:10:20;94470.06;;;18.28;86.10
62978;BME280;49073;42.352;23.808;2023-05-29T14:13:21;94454.44;;;18.43;87.73
62978;BME280;49073;42.352;23.808;2023-05-29T14:16:21;94465.13;;;18.51;86.01
62978;BME280;49073;42.352;23.808;2023-05-29T14:19:22;94456.25;;;18.50;86.90
62978;BME280;49073;42.352;23.808;2023-05-29T14:22:23;94449.94;;;18.60;87.92
62978;BME280;49073;42.352;23.808;2023-05-29T14:25:23;94451.13;;;18.80;89.21
62978;BME280;49073;42.352;23.808;2023-05-29T14:28:24;94454.63;;;18.80;87.73
62978;BME280;49073;42.352;23.808;2023-05-29T14:31:25;94449.75;;;18.71;88.21
62978;BME280;49073;42.352;23.808;2023-05-29T14:34:26;94449.88;;;18.64;89.29
62978;BME280;49073;42.352;23.808;2023-05-29T14:37:27;94439.28;;;18.26;89.96
62978;BME280;49073;42.352;23.808;2023-05-29T14:40:27;94448.19;;;18.23;91.55
62978;BME280;49073;42.352;23.808;2023-05-29T14:43:28;94445.06;;;18.28;93.10
62978;BME280;49073;42.352;23.808;2023-05-29T14:46:28;94448.84;;;18.30;93.40
62978;BME280;49073;42.352;23.808;2023-05-29T14:49:31;94440.38;;;18.32;93.80
62978;BME280;49073;42.352;23.808;2023-05-29T14:52:33;94440.38;;;18.32;93.66
62978;BME280;49073;42.352;23.808;2023-05-29T14:55:34;94443.97;;;18.22;94.26
62978;BME280;49073;42.352;23.808;2023-05-29T14:58:37;94450.53;;;18.21;94.50
62978;BME280;49073;42.352;23.808;2023-05-29T15:01:38;94445.41;;;18.30;94.75
62978;BME280;49073;42.352;23.808;2023-05-29T15:04:39;94444.66;;;18.26;95.08
62978;BME280;49073;42.352;23.808;2023-05-29T15:07:39;94448.19;;;18.23;95.31
62978;BME280;49073;42.352;23.808;2023-05-29T15:10:43;94442.09;;;18.18;96.25
62978;BME280;49073;42.352;23.808;2023-05-29T15:13:44;94449.28;;;18.29;97.86
62978;BME280;49073;42.352;23.808;2023-05-29T15:16:45;94456.56;;;18.32;97.43
62978;BME280;49073;42.352;23.808;2023-05-29T15:19:46;94447.28;;;18.57;95.59
62978;BME280;49073;42.352;23.808;2023-05-29T15:22:46;94448.34;;;18.63;88.80
62978;BME280;49073;42.352;23.808;2023-05-29T15:25:49;94455.63;;;18.66;85.39
62978;BME280;49073;42.352;23.808;2023-05-29T15:28:50;94456.78;;;18.41;83.76
62978;BME280;49073;42.352;23.808;2023-05-29T15:31:50;94456.19;;;18.30;84.03
62978;BME280;49073;42.352;23.808;2023-05-29T15:34:51;94459.78;;;18.20;84.86
62978;BME280;49073;42.352;23.808;2023-05-29T15:37:52;94468.50;;;18.31;86.50
62978;BME280;49073;42.352;23.808;2023-05-29T15:40:52;94447.75;;;18.52;81.07
62978;BME280;49073;42.352;23.808;2023-05-29T15:43:53;94456.50;;;18.59;80.03
62978;BME280;49073;42.352;23.808;2023-05-29T15:46:53;94459.03;;;18.46;80.66
62978;BME280;49073;42.352;23.808;2023-05-29T15:49:54;94464.19;;;18.37;82.93
62978;BME280;49073;42.352;23.808;2023-05-29T15:52:56;94459.88;;;18.40;84.30
62978;BME280;49073;42.352;23.808;2023-05-29T15:55:56;94458.06;;;18.33;85.31
62978;BME280;49073;42.352;23.808;2023-05-29T15:58:57;94465.28;;;18.40;85.90
62978;BME280;49073;42.352;23.808;2023-05-29T16:01:58;94467.28;;;18.36;86.94
62978;BME280;49073;42.352;23.808;2023-05-29T16:04:59;94469.56;;;18.37;87.72